createdAt,value
2019-06-27T00:00:20.307Z,30.23
2019-06-27T00:01:18.973Z,30.26
2019-06-27T00:02:17.516Z,30.1
2019-06-27T00:03:16.052Z,30.13
2019-06-27T00:04:15.030Z,30.08
2019-06-27T00:05:13.630Z,30.07
2019-06-27T00:06:12.199Z,30.08
2019-06-27T00:07:10.735Z,30.08
2019-06-27T00:08:09.270Z,30.04
2019-06-27T00:09:07.797Z,29.94
2019-06-27T00:10:06.482Z,30.08
2019-06-27T00:11:05.239Z,30.13
2019-06-27T00:12:03.788Z,30
2019-06-27T00:13:02.503Z,30
2019-06-27T00:14:01.053Z,30.07
2019-06-27T00:14:59.603Z,30.1
2019-06-27T00:15:58.145Z,30.11
2019-06-27T00:16:56.785Z,30.02
2019-06-27T00:17:55.323Z,30.07
2019-06-27T00:18:53.842Z,29.98
2019-06-27T00:19:52.399Z,30.04
2019-06-27T00:20:50.945Z,30.04
2019-06-27T00:21:49.457Z,29.94
2019-06-27T00:22:47.980Z,29.95
2019-06-27T00:23:46.523Z,29.89
2019-06-27T00:24:45.078Z,29.97
2019-06-27T00:25:43.628Z,30
2019-06-27T00:26:56.032Z,29.97
2019-06-27T00:27:41.024Z,30.01
2019-06-27T00:28:39.561Z,29.92
2019-06-27T00:29:38.195Z,29.8
2019-06-27T00:30:36.844Z,29.95
2019-06-27T00:31:35.374Z,29.92
2019-06-27T00:32:33.950Z,29.89
2019-06-27T00:33:32.560Z,29.82
2019-06-27T00:34:31.079Z,29.87
2019-06-27T00:35:29.617Z,29.89
2019-06-27T00:36:28.160Z,29.9
2019-06-27T00:37:26.697Z,29.83
2019-06-27T00:38:25.240Z,29.79
2019-06-27T00:39:23.809Z,29.79
2019-06-27T00:40:22.514Z,29.71
2019-06-27T00:41:21.124Z,29.79
2019-06-27T00:42:19.668Z,29.8
2019-06-27T00:43:18.220Z,29.76
2019-06-27T00:44:16.890Z,29.78
2019-06-27T00:45:15.454Z,29.76
2019-06-27T00:46:14.031Z,29.74
2019-06-27T00:47:12.652Z,29.78
2019-06-27T00:48:11.311Z,29.71
2019-06-27T00:49:09.851Z,29.8
2019-06-27T00:50:08.388Z,29.83
2019-06-27T00:51:06.940Z,29.74
2019-06-27T00:52:05.494Z,29.82
2019-06-27T00:53:04.021Z,29.82
2019-06-27T00:54:02.567Z,29.79
2019-06-27T00:55:01.118Z,29.73
2019-06-27T00:55:59.687Z,29.74
2019-06-27T00:57:12.766Z,29.71
2019-06-27T00:57:56.938Z,29.67
2019-06-27T00:58:55.479Z,29.63
2019-06-27T00:59:54.084Z,29.74
2019-06-27T01:00:52.797Z,29.63
2019-06-27T01:01:51.349Z,29.74
2019-06-27T01:02:50.004Z,29.67
2019-06-27T01:03:48.674Z,29.68
2019-06-27T01:04:47.237Z,29.7
2019-06-27T01:05:45.777Z,29.68
2019-06-27T01:06:44.339Z,29.65
2019-06-27T01:07:43.025Z,29.6
2019-06-27T01:08:41.589Z,29.63
2019-06-27T01:09:40.155Z,29.61
2019-06-27T01:10:38.922Z,29.6
2019-06-27T01:11:37.464Z,29.68
2019-06-27T01:12:36.009Z,29.68
2019-06-27T01:13:34.917Z,29.64
2019-06-27T01:14:33.512Z,29.58
2019-06-27T01:15:32.050Z,29.64
2019-06-27T01:16:30.676Z,29.58
2019-06-27T01:17:29.290Z,29.65
2019-06-27T01:18:27.823Z,29.46
2019-06-27T01:19:26.625Z,29.61
2019-06-27T01:20:25.218Z,29.61
2019-06-27T01:21:23.759Z,29.63
2019-06-27T01:22:22.312Z,29.64
2019-06-27T01:23:20.945Z,29.6
2019-06-27T01:24:19.482Z,29.6
2019-06-27T01:25:18.297Z,29.41
2019-06-27T01:26:16.966Z,29.55
2019-06-27T01:27:29.010Z,29.39
2019-06-27T01:28:14.068Z,29.37
2019-06-27T01:29:12.805Z,29.41
2019-06-27T01:30:11.356Z,29.39
2019-06-27T01:31:09.896Z,29.46
2019-06-27T01:33:17.741Z,29.37
2019-06-27T01:34:16.261Z,29.39
2019-06-27T01:35:14.846Z,29.34
2019-06-27T01:36:13.408Z,29.34
2019-06-27T01:37:11.949Z,29.33
2019-06-27T01:38:10.499Z,29.3
2019-06-27T01:39:09.042Z,29.33
2019-06-27T01:40:07.594Z,29.31
2019-06-27T01:41:06.298Z,29.24
2019-06-27T01:42:05.120Z,29.26
2019-06-27T01:43:03.648Z,29.24
2019-06-27T01:44:02.252Z,29.21
2019-06-27T01:45:00.941Z,29.24
2019-06-27T01:45:59.470Z,29.26
2019-06-27T01:46:58.000Z,29.19
2019-06-27T01:47:56.596Z,29.16
2019-06-27T01:48:55.129Z,29.16
2019-06-27T01:49:53.675Z,29.14
2019-06-27T01:50:52.244Z,29.18
2019-06-27T01:51:50.892Z,29.16
2019-06-27T01:52:49.433Z,29.11
2019-06-27T01:53:47.981Z,29.08
2019-06-27T01:54:46.586Z,29.12
2019-06-27T01:55:45.231Z,29.16
2019-06-27T01:56:43.757Z,29.06
2019-06-27T01:57:46.427Z,29.04
2019-06-27T01:58:41.136Z,29.05
2019-06-27T01:59:39.659Z,29.08
2019-06-27T02:00:38.202Z,29.06
2019-06-27T02:01:36.777Z,28.98
2019-06-27T02:02:35.296Z,28.93
2019-06-27T02:03:33.920Z,28.93
2019-06-27T02:04:32.450Z,28.98
2019-06-27T02:05:31.002Z,28.93
2019-06-27T02:06:29.554Z,29.05
2019-06-27T02:07:28.211Z,29
2019-06-27T02:08:26.865Z,28.89
2019-06-27T02:09:25.416Z,28.89
2019-06-27T02:10:23.940Z,28.85
2019-06-27T02:11:22.600Z,28.81
2019-06-27T02:12:21.224Z,28.83
2019-06-27T02:13:19.783Z,28.76
2019-06-27T02:14:18.331Z,28.71
2019-06-27T02:15:16.886Z,28.77
2019-06-27T02:16:15.429Z,28.78
2019-06-27T02:17:13.991Z,28.78
2019-06-27T02:18:12.600Z,28.62
2019-06-27T02:19:11.139Z,28.67
2019-06-27T02:20:09.682Z,28.71
2019-06-27T02:21:08.229Z,28.71
2019-06-27T02:22:06.770Z,28.81
2019-06-27T02:23:05.299Z,28.73
2019-06-27T02:24:03.861Z,28.78
2019-06-27T02:25:02.573Z,28.78
2019-06-27T02:26:01.223Z,28.74
2019-06-27T02:26:59.750Z,28.86
2019-06-27T02:28:03.559Z,28.76
2019-06-27T02:29:59.095Z,28.71
2019-06-27T02:30:57.617Z,28.7
2019-06-27T02:31:56.226Z,28.66
2019-06-27T02:32:54.938Z,28.7
2019-06-27T02:33:53.487Z,28.59
2019-06-27T02:34:52.032Z,28.61
2019-06-27T02:35:50.669Z,28.64
2019-06-27T02:36:49.320Z,28.56
2019-06-27T02:37:47.864Z,28.62
2019-06-27T02:38:46.430Z,28.54
2019-06-27T02:39:44.968Z,28.61
2019-06-27T02:40:43.511Z,28.55
2019-06-27T02:42:51.251Z,28.64
2019-06-27T02:43:49.803Z,28.49
2019-06-27T02:44:48.462Z,28.44
2019-06-27T02:45:47.095Z,28.43
2019-06-27T02:46:45.610Z,28.46
2019-06-27T02:47:44.145Z,28.51
2019-06-27T02:48:42.982Z,28.59
2019-06-27T02:49:41.565Z,28.49
2019-06-27T02:50:40.133Z,28.52
2019-06-27T02:51:38.769Z,28.46
2019-06-27T02:52:37.316Z,28.54
2019-06-27T02:53:35.867Z,28.62
2019-06-27T02:54:34.418Z,28.4
2019-06-27T02:55:32.959Z,28.41
2019-06-27T02:56:31.489Z,28.43
2019-06-27T02:57:30.030Z,28.52
2019-06-27T02:58:31.952Z,28.52
2019-06-27T02:59:27.113Z,28.58
2019-06-27T03:00:25.674Z,28.56
2019-06-27T03:01:24.233Z,28.52
2019-06-27T03:02:22.812Z,28.51
2019-06-27T03:03:21.459Z,28.51
2019-06-27T03:05:04.974Z,28.43
2019-06-27T03:06:03.501Z,28.43
2019-06-27T03:07:02.216Z,28.31
2019-06-27T03:08:00.898Z,28.33
2019-06-27T03:08:59.421Z,28.37
2019-06-27T03:09:57.979Z,28.43
2019-06-27T03:10:56.518Z,28.44
2019-06-27T03:11:59.414Z,28.31
2019-06-27T03:12:53.666Z,28.36
2019-06-27T03:13:52.274Z,28.39
2019-06-27T03:14:50.955Z,28.41
2019-06-27T03:15:49.457Z,28.56
2019-06-27T03:16:48.018Z,28.54
2019-06-27T03:17:46.647Z,28.54
2019-06-27T03:18:45.214Z,28.41
2019-06-27T03:19:43.764Z,28.52
2019-06-27T03:20:42.336Z,28.43
2019-06-27T03:21:40.983Z,28.51
2019-06-27T03:22:39.540Z,28.41
2019-06-27T03:23:38.111Z,28.37
2019-06-27T03:24:36.640Z,28.43
2019-06-27T03:25:35.186Z,28.36
2019-06-27T03:26:33.736Z,28.41
2019-06-27T03:27:32.281Z,28.37
2019-06-27T03:28:49.664Z,28.34
2019-06-27T03:29:29.366Z,28.36
2019-06-27T03:30:27.906Z,28.37
2019-06-27T03:31:26.438Z,28.46
2019-06-27T03:32:24.979Z,28.41
2019-06-27T03:33:23.512Z,28.39
2019-06-27T03:34:22.122Z,28.39
2019-06-27T03:35:20.776Z,28.46
2019-06-27T03:36:19.417Z,28.49
2019-06-27T03:37:17.974Z,28.39
2019-06-27T03:38:16.780Z,28.61
2019-06-27T03:39:15.334Z,28.52
2019-06-27T03:40:13.862Z,28.56
2019-06-27T03:41:12.451Z,28.54
2019-06-27T03:42:10.977Z,28.52
2019-06-27T03:43:09.528Z,28.62
2019-06-27T03:44:08.054Z,28.64
2019-06-27T03:45:06.630Z,28.58
2019-06-27T03:46:05.161Z,28.64
2019-06-27T03:47:03.700Z,28.59
2019-06-27T03:48:02.227Z,28.66
2019-06-27T03:49:00.763Z,28.59
2019-06-27T03:49:59.349Z,28.54
2019-06-27T03:50:57.903Z,28.66
2019-06-27T03:51:56.682Z,28.68
2019-06-27T03:52:55.273Z,28.74
2019-06-27T03:53:53.862Z,28.61
2019-06-27T03:54:52.516Z,28.7
2019-06-27T03:55:51.067Z,28.67
2019-06-27T03:56:49.646Z,28.73
2019-06-27T03:57:48.191Z,28.73
2019-06-27T03:58:46.821Z,28.67
2019-06-27T03:59:45.507Z,28.78
2019-06-27T04:00:44.077Z,28.77
2019-06-27T04:01:42.714Z,28.76
2019-06-27T04:02:41.405Z,28.85
2019-06-27T04:03:42.755Z,28.85
2019-06-27T04:04:38.637Z,28.9
2019-06-27T04:05:37.296Z,28.86
2019-06-27T04:06:35.912Z,28.88
2019-06-27T04:07:34.458Z,28.92
2019-06-27T04:08:33.022Z,28.88
2019-06-27T04:09:31.577Z,28.93
2019-06-27T04:10:30.202Z,29.04
2019-06-27T04:11:28.904Z,29.08
2019-06-27T04:12:27.475Z,28.93
2019-06-27T04:13:26.024Z,29.02
2019-06-27T04:14:24.578Z,28.81
2019-06-27T04:15:23.251Z,28.85
2019-06-27T04:16:21.785Z,28.85
2019-06-27T04:17:20.422Z,28.86
2019-06-27T04:18:19.040Z,28.88
2019-06-27T04:19:17.611Z,28.89
2019-06-27T04:20:16.139Z,28.95
2019-06-27T04:21:14.717Z,28.73
2019-06-27T04:22:17.217Z,28.85
2019-06-27T04:23:11.808Z,28.86
2019-06-27T04:24:10.368Z,28.85
2019-06-27T04:25:08.909Z,28.86
2019-06-27T04:26:07.459Z,28.92
2019-06-27T04:27:06.014Z,28.9
2019-06-27T04:28:04.712Z,28.95
2019-06-27T04:29:03.267Z,28.98
2019-06-27T04:30:01.844Z,29.05
2019-06-27T04:31:00.587Z,29.02
2019-06-27T04:31:59.220Z,28.95
2019-06-27T04:32:57.770Z,29.02
2019-06-27T04:33:56.297Z,29.02
2019-06-27T04:34:54.904Z,29.06
2019-06-27T04:35:53.492Z,29.06
2019-06-27T04:36:52.051Z,29
2019-06-27T04:37:50.586Z,29.11
2019-06-27T04:38:49.110Z,29.09
2019-06-27T04:39:47.635Z,29.06
2019-06-27T04:40:46.169Z,29.09
2019-06-27T04:41:44.722Z,29.15
2019-06-27T04:42:43.441Z,29.26
2019-06-27T04:43:42.005Z,29.27
2019-06-27T04:44:40.550Z,29.39
2019-06-27T04:45:39.208Z,29.39
2019-06-27T04:46:37.819Z,29.39
2019-06-27T04:47:36.463Z,29.3
2019-06-27T04:48:35.144Z,29.55
2019-06-27T04:49:33.719Z,29.68
2019-06-27T04:50:32.259Z,29.65
2019-06-27T04:51:30.853Z,29.53
2019-06-27T04:52:29.424Z,29.63
2019-06-27T04:53:28.056Z,29.65
2019-06-27T04:54:26.962Z,29.18
2019-06-27T04:55:25.522Z,29.12
2019-06-27T04:56:24.052Z,29.26
2019-06-27T04:57:22.705Z,29.39
2019-06-27T04:58:21.305Z,29.52
2019-06-27T04:59:19.875Z,29.63
2019-06-27T05:00:18.435Z,29.6
2019-06-27T05:01:17.001Z,29.57
2019-06-27T05:02:15.535Z,29.41
2019-06-27T05:03:14.069Z,29.58
2019-06-27T05:04:12.621Z,29.55
2019-06-27T05:05:11.158Z,29.58
2019-06-27T05:06:09.769Z,29.64
2019-06-27T05:07:08.393Z,29.61
2019-06-27T05:08:07.176Z,29.65
2019-06-27T05:09:05.691Z,29.73
2019-06-27T05:10:04.281Z,29.94
2019-06-27T05:11:03.021Z,30.04
2019-06-27T05:12:01.751Z,30.01
2019-06-27T05:13:00.394Z,29.98
2019-06-27T05:15:34.524Z,29.94
2019-06-27T05:16:33.259Z,30.04
2019-06-27T05:17:31.800Z,29.98
2019-06-27T05:18:30.381Z,30.07
2019-06-27T05:19:29.041Z,30.65
2019-06-27T05:20:27.585Z,31.23
2019-06-27T05:21:26.150Z,31.41
2019-06-27T05:22:24.744Z,31.2
2019-06-27T05:23:23.403Z,30.88
2019-06-27T05:24:21.949Z,30.76
2019-06-27T05:25:20.620Z,30.65
2019-06-27T05:26:19.355Z,30.49
2019-06-27T05:27:17.922Z,30.61
2019-06-27T05:28:16.561Z,30.35
2019-06-27T05:29:15.096Z,30.46
2019-06-27T05:30:13.718Z,30.69
2019-06-27T05:31:12.599Z,30.82
2019-06-27T05:32:11.106Z,30.72
2019-06-27T05:33:09.850Z,30.46
2019-06-27T05:34:08.452Z,30.46
2019-06-27T05:35:07.123Z,30.29
2019-06-27T05:36:05.687Z,30.24
2019-06-27T05:37:04.311Z,30.17
2019-06-27T05:38:02.980Z,30.19
2019-06-27T05:39:01.515Z,30.1
2019-06-27T05:40:00.026Z,30.1
2019-06-27T05:40:58.660Z,30.11
2019-06-27T05:41:57.167Z,30.08
2019-06-27T05:42:56.015Z,30.11
2019-06-27T05:43:54.545Z,30.17
2019-06-27T05:44:53.340Z,30.23
2019-06-27T05:45:51.919Z,30.2
2019-06-27T05:46:50.538Z,30
2019-06-27T05:47:49.175Z,29.87
2019-06-27T05:48:47.754Z,29.61
2019-06-27T05:49:46.324Z,29.79
2019-06-27T05:50:44.846Z,29.78
2019-06-27T05:51:43.628Z,29.7
2019-06-27T05:52:42.162Z,29.71
2019-06-27T05:53:41.104Z,29.83
2019-06-27T05:54:39.709Z,29.98
2019-06-27T05:55:38.239Z,30.05
2019-06-27T05:56:36.871Z,29.82
2019-06-27T05:57:35.495Z,30.19
2019-06-27T05:58:33.957Z,30.86
2019-06-27T05:59:32.500Z,31.17
2019-06-27T06:00:31.011Z,31.43
2019-06-27T06:01:29.642Z,31.54
2019-06-27T06:04:04.693Z,31.17
2019-06-27T06:05:03.382Z,31.29
2019-06-27T06:06:01.884Z,31.17
2019-06-27T06:07:00.430Z,31.5
2019-06-27T06:07:59.209Z,31.48
2019-06-27T06:08:57.770Z,31.72
2019-06-27T06:09:56.265Z,31.61
2019-06-27T06:10:54.930Z,31.76
2019-06-27T06:11:53.465Z,31.92
2019-06-27T06:12:51.989Z,32.22
2019-06-27T06:13:50.680Z,32.26
2019-06-27T06:14:49.187Z,32.52
2019-06-27T06:15:47.727Z,32.47
2019-06-27T06:16:46.277Z,32.44
2019-06-27T06:17:44.874Z,32.47
2019-06-27T06:18:43.374Z,32.7
2019-06-27T06:19:41.909Z,32.59
2019-06-27T06:20:40.644Z,32.25
2019-06-27T06:21:39.279Z,32.55
2019-06-27T06:22:37.824Z,32.66
2019-06-27T06:23:36.614Z,32.66
2019-06-27T06:24:35.268Z,32.67
2019-06-27T06:25:33.843Z,32.82
2019-06-27T06:26:32.396Z,32.51
2019-06-27T06:27:30.976Z,32.56
2019-06-27T06:28:29.538Z,32.78
2019-06-27T06:29:28.085Z,32.79
2019-06-27T06:30:39.971Z,32.84
2019-06-27T06:31:25.497Z,32.88
2019-06-27T06:32:24.122Z,32.96
2019-06-27T06:33:22.783Z,32.81
2019-06-27T06:34:21.436Z,32.7
2019-06-27T06:35:19.980Z,32.84
2019-06-27T06:36:18.562Z,32.72
2019-06-27T06:37:17.108Z,32.81
2019-06-27T06:38:15.631Z,32.78
2019-06-27T06:39:14.258Z,32.67
2019-06-27T06:40:12.968Z,32.82
2019-06-27T06:41:11.602Z,32.62
2019-06-27T06:42:10.133Z,32.59
2019-06-27T06:43:08.677Z,32.35
2019-06-27T06:44:07.267Z,32.26
2019-06-27T06:45:05.824Z,32.44
2019-06-27T06:46:04.455Z,32.48
2019-06-27T06:47:03.128Z,32.48
2019-06-27T06:48:01.692Z,32.63
2019-06-27T06:49:00.286Z,32.62
2019-06-27T06:49:58.833Z,32.62
2019-06-27T06:50:57.385Z,32.69
2019-06-27T06:51:55.901Z,32.74
2019-06-27T06:52:54.477Z,32.78
2019-06-27T06:53:52.981Z,32.75
2019-06-27T06:54:51.508Z,32.74
2019-06-27T06:55:50.120Z,32.84
2019-06-27T06:56:48.740Z,32.85
2019-06-27T06:57:47.323Z,32.57
2019-06-27T06:58:45.856Z,32.4
2019-06-27T06:59:44.386Z,32.29
2019-06-27T07:00:56.981Z,32.43
2019-06-27T07:01:44.635Z,32.48
2019-06-27T07:02:40.267Z,32.5
2019-06-27T07:03:39.027Z,32.41
2019-06-27T07:04:37.590Z,32.6
2019-06-27T07:05:36.109Z,32.82
2019-06-27T07:06:34.684Z,33.04
2019-06-27T07:07:33.237Z,32.78
2019-06-27T07:08:31.774Z,32.84
2019-06-27T07:09:30.301Z,32.99
2019-06-27T07:10:28.847Z,32.7
2019-06-27T07:11:27.370Z,32.88
2019-06-27T07:12:25.900Z,32.79
2019-06-27T07:13:24.449Z,32.81
2019-06-27T07:14:24.929Z,32.78
2019-06-27T07:15:21.748Z,32.57
2019-06-27T07:16:20.262Z,32.66
2019-06-27T07:17:20.918Z,32.5
2019-06-27T07:18:19.482Z,32.5
2019-06-27T07:19:18.039Z,32.67
2019-06-27T07:20:16.616Z,32.57
2019-06-27T07:21:15.266Z,32.84
2019-06-27T07:22:13.812Z,32.84
2019-06-27T07:23:12.340Z,32.85
2019-06-27T07:24:10.896Z,32.81
2019-06-27T07:25:09.458Z,32.99
2019-06-27T07:26:07.999Z,32.97
2019-06-27T07:27:06.489Z,32.77
2019-06-27T07:28:05.040Z,32.78
2019-06-27T07:29:03.570Z,33.04
2019-06-27T07:30:02.143Z,33.07
2019-06-27T07:31:08.225Z,32.99
2019-06-27T07:31:59.326Z,33.07
2019-06-27T07:32:57.862Z,32.82
2019-06-27T07:33:56.428Z,32.74
2019-06-27T07:34:55.164Z,32.82
2019-06-27T07:35:53.695Z,32.89
2019-06-27T07:36:52.328Z,32.93
2019-06-27T07:37:51.026Z,32.79
2019-06-27T07:38:49.601Z,32.88
2019-06-27T07:39:48.134Z,32.67
2019-06-27T07:40:46.672Z,32.75
2019-06-27T07:41:45.217Z,32.82
2019-06-27T07:42:43.795Z,32.84
2019-06-27T07:43:42.348Z,32.84
2019-06-27T07:44:40.983Z,32.7
2019-06-27T07:45:39.548Z,32.85
2019-06-27T07:46:38.154Z,32.92
2019-06-27T07:47:36.644Z,32.94
2019-06-27T07:48:35.332Z,32.97
2019-06-27T07:49:33.860Z,33.14
2019-06-27T07:50:32.485Z,33.18
2019-06-27T07:51:31.095Z,33.06
2019-06-27T07:52:29.645Z,33.18
2019-06-27T07:53:28.167Z,33.21
2019-06-27T07:54:26.774Z,33.26
2019-06-27T07:55:25.407Z,33.04
2019-06-27T07:56:23.928Z,32.84
2019-06-27T07:57:22.522Z,32.79
2019-06-27T07:58:21.170Z,32.88
2019-06-27T07:59:19.718Z,32.82
2019-06-27T08:00:18.230Z,32.96
2019-06-27T08:01:30.768Z,32.87
2019-06-27T08:02:16.422Z,33.09
2019-06-27T08:03:14.022Z,33
2019-06-27T08:04:12.746Z,32.94
2019-06-27T08:05:11.328Z,33.12
2019-06-27T08:06:09.878Z,33.18
2019-06-27T08:07:08.454Z,33.19
2019-06-27T08:08:07.085Z,32.97
2019-06-27T08:09:05.624Z,32.85
2019-06-27T08:10:04.162Z,32.97
2019-06-27T08:11:02.697Z,32.7
2019-06-27T08:12:01.232Z,32.89
2019-06-27T08:12:59.837Z,32.78
2019-06-27T08:13:58.514Z,32.87
2019-06-27T08:14:57.387Z,32.62
2019-06-27T08:17:05.383Z,32.92
2019-06-27T08:18:03.950Z,32.99
2019-06-27T08:19:02.586Z,32.65
2019-06-27T08:20:01.110Z,32.74
2019-06-27T08:20:59.656Z,32.85
2019-06-27T08:23:41.716Z,32.87
2019-06-27T08:24:38.349Z,32.84
2019-06-27T08:25:37.253Z,32.65
2019-06-27T08:26:35.799Z,32.62
2019-06-27T08:27:34.432Z,32.69
2019-06-27T08:28:33.099Z,32.81
2019-06-27T08:29:31.640Z,32.57
2019-06-27T08:30:30.180Z,32.78
2019-06-27T08:32:46.064Z,32.79
2019-06-27T08:33:44.630Z,32.84
2019-06-27T08:34:43.267Z,32.85
2019-06-27T08:35:41.850Z,32.79
2019-06-27T08:36:40.381Z,32.55
2019-06-27T08:37:39.027Z,32.5
2019-06-27T08:38:55.231Z,32.48
2019-06-27T08:39:53.828Z,32.28
2019-06-27T08:40:52.316Z,32.18
2019-06-27T08:41:50.868Z,32.25
2019-06-27T08:42:49.422Z,32.37
2019-06-27T08:43:47.963Z,32.48
2019-06-27T08:44:46.533Z,32.51
2019-06-27T08:45:45.057Z,32.45
2019-06-27T08:46:43.594Z,32.41
2019-06-27T08:47:42.128Z,32.29
2019-06-27T08:48:40.821Z,32.23
2019-06-27T08:49:39.518Z,32.1
2019-06-27T08:50:38.067Z,32.29
2019-06-27T08:51:36.819Z,32.5
2019-06-27T08:52:35.483Z,32.56
2019-06-27T08:53:34.058Z,32.6
2019-06-27T08:54:32.579Z,32.57
2019-06-27T08:55:31.134Z,32.47
2019-06-27T08:56:29.779Z,32.45
2019-06-27T08:57:28.448Z,32.62
2019-06-27T08:58:27.390Z,32.67
2019-06-27T08:59:25.901Z,32.52
2019-06-27T09:00:24.457Z,32.29
2019-06-27T09:01:23.082Z,32.28
2019-06-27T09:02:21.688Z,32.21
2019-06-27T09:03:20.281Z,32.25
2019-06-27T09:04:18.863Z,32.18
2019-06-27T09:05:17.402Z,32.25
2019-06-27T09:06:16.026Z,32.22
2019-06-27T09:07:14.827Z,32.18
2019-06-27T09:08:13.488Z,31.95
2019-06-27T09:09:12.186Z,32.13
2019-06-27T09:10:10.884Z,32.19
2019-06-27T09:11:09.330Z,32.26
2019-06-27T09:12:07.945Z,32.19
2019-06-27T09:13:06.439Z,32.11
2019-06-27T09:14:04.965Z,32.03
2019-06-27T09:15:03.532Z,32.06
2019-06-27T09:16:02.146Z,32.28
2019-06-27T09:17:00.836Z,32.25
2019-06-27T09:17:59.554Z,32.38
2019-06-27T09:18:58.159Z,32.41
2019-06-27T09:19:56.849Z,32.45
2019-06-27T09:20:55.489Z,32.3
2019-06-27T09:21:53.974Z,32.29
2019-06-27T09:22:52.585Z,32.43
2019-06-27T09:23:51.112Z,32.6
2019-06-27T09:24:49.701Z,32.6
2019-06-27T09:25:48.292Z,32.59
2019-06-27T09:26:46.978Z,32.51
2019-06-27T09:27:45.612Z,32.55
2019-06-27T09:28:44.246Z,32.72
2019-06-27T09:29:42.970Z,32.81
2019-06-27T09:30:41.583Z,32.56
2019-06-27T09:31:40.099Z,32.62
2019-06-27T09:32:38.670Z,32.57
2019-06-27T09:33:37.284Z,32.45
2019-06-27T09:34:36.003Z,32.51
2019-06-27T09:35:34.615Z,32.28
2019-06-27T09:36:33.292Z,32.35
2019-06-27T09:37:31.892Z,32.3
2019-06-27T09:38:30.431Z,32.29
2019-06-27T09:39:29.060Z,32.35
2019-06-27T09:40:27.579Z,32.33
2019-06-27T09:41:26.111Z,32.32
2019-06-27T09:42:24.869Z,32.4
2019-06-27T09:43:23.372Z,32.3
2019-06-27T09:44:21.886Z,32.14
2019-06-27T09:45:20.460Z,32.11
2019-06-27T09:46:18.976Z,32.21
2019-06-27T09:47:17.420Z,32.33
2019-06-27T09:48:16.019Z,32.3
2019-06-27T09:49:14.548Z,32.32
2019-06-27T09:50:13.149Z,32.3
2019-06-27T09:51:11.747Z,32.22
2019-06-27T09:52:10.234Z,32.26
2019-06-27T09:53:09.024Z,32.26
2019-06-27T09:54:07.590Z,32.28
2019-06-27T09:55:06.120Z,32.29
2019-06-27T09:56:04.873Z,32.32
2019-06-27T09:57:03.562Z,32.33
2019-06-27T09:58:02.176Z,32.37
2019-06-27T09:59:00.753Z,32.26
2019-06-27T09:59:59.325Z,32.35
2019-06-27T10:00:57.993Z,32.29
2019-06-27T10:01:56.452Z,32.37
2019-06-27T10:02:55.120Z,32.35
2019-06-27T10:03:53.779Z,32.18
2019-06-27T10:04:52.253Z,32.26
2019-06-27T10:05:51.043Z,32.15
2019-06-27T10:06:49.859Z,32.22
2019-06-27T10:07:48.384Z,32.21
2019-06-27T10:08:46.915Z,32.3
2019-06-27T10:09:45.451Z,32.22
2019-06-27T10:10:44.022Z,32.21
2019-06-27T10:11:42.708Z,32.32
2019-06-27T10:12:43.075Z,32.11
2019-06-27T10:13:39.932Z,32.14
2019-06-27T10:14:38.591Z,32.19
2019-06-27T10:15:37.107Z,32.29
2019-06-27T10:16:35.640Z,32.45
2019-06-27T10:17:34.172Z,32.55
2019-06-27T10:18:32.831Z,32.62
2019-06-27T10:19:31.428Z,32.59
2019-06-27T10:20:30.015Z,32.48
2019-06-27T10:21:28.530Z,32.51
2019-06-27T10:22:27.083Z,32.48
2019-06-27T10:23:25.756Z,32.51
2019-06-27T10:24:24.243Z,32.45
2019-06-27T10:25:22.859Z,32.41
2019-06-27T10:26:21.611Z,32.43
2019-06-27T10:27:20.114Z,32.41
2019-06-27T10:28:18.790Z,32.35
2019-06-27T10:29:17.473Z,32.44
2019-06-27T10:30:16.055Z,32.5
2019-06-27T10:31:14.568Z,32.4
2019-06-27T10:32:13.181Z,32.5
2019-06-27T10:33:11.719Z,32.45
2019-06-27T10:34:10.258Z,32.56
2019-06-27T10:35:08.780Z,32.57
2019-06-27T10:36:07.315Z,32.59
2019-06-27T10:37:05.830Z,32.55
2019-06-27T10:38:04.624Z,32.57
2019-06-27T10:39:03.428Z,32.5
2019-06-27T10:40:01.972Z,32.38
2019-06-27T10:41:00.650Z,32.45
2019-06-27T10:43:00.325Z,32.57
2019-06-27T10:43:59.105Z,32.52
2019-06-27T10:44:57.688Z,32.51
2019-06-27T10:45:57.190Z,32.55
2019-06-27T10:46:55.765Z,32.41
2019-06-27T10:47:54.339Z,32.48
2019-06-27T10:48:52.952Z,32.56
2019-06-27T10:49:51.500Z,32.51
2019-06-27T10:50:50.084Z,32.43
2019-06-27T10:51:48.800Z,32.28
2019-06-27T10:52:47.586Z,32.29
2019-06-27T10:53:46.154Z,32.3
2019-06-27T10:54:44.749Z,32.32
2019-06-27T10:55:43.447Z,32.35
2019-06-27T10:56:41.951Z,32.29
2019-06-27T10:57:40.486Z,32.41
2019-06-27T10:58:39.055Z,32.48
2019-06-27T10:59:37.641Z,32.48
2019-06-27T11:00:36.178Z,32.55
2019-06-27T11:01:34.715Z,32.48
2019-06-27T11:02:33.255Z,32.45
2019-06-27T11:03:31.770Z,32.25
2019-06-27T11:04:30.277Z,32.28
2019-06-27T11:05:28.921Z,32.22
2019-06-27T11:10:30.690Z,32.51
2019-06-27T11:14:26.998Z,32.37
2019-06-27T11:17:09.398Z,32.19
2019-06-27T11:18:34.903Z,32.25
2019-06-27T11:19:32.391Z,32.41
2019-06-27T11:20:47.446Z,32.47
2019-06-27T11:22:46.816Z,32.38
2019-06-27T11:23:48.768Z,32.37
2019-06-27T11:27:40.360Z,32.3
2019-06-27T11:30:47.868Z,32.35
2019-06-27T11:31:56.378Z,32.29
2019-06-27T11:32:57.864Z,32.41
2019-06-27T11:34:08.366Z,32.41
2019-06-27T11:36:53.493Z,32.4
2019-06-27T11:40:28.104Z,32.45
2019-06-27T11:41:25.862Z,32.4
2019-06-27T11:42:30.613Z,32.3
2019-06-27T11:43:40.245Z,32.29
2019-06-27T11:44:41.116Z,32.38
2019-06-27T11:45:38.790Z,32.41
2019-06-27T11:46:40.956Z,32.33
2019-06-27T11:47:39.586Z,32.4
2019-06-27T11:48:40.157Z,32.3
2019-06-27T11:51:00.135Z,32.3
2019-06-27T11:52:01.221Z,32.48
2019-06-27T11:53:03.514Z,32.4
2019-06-27T11:54:01.992Z,32.43
2019-06-27T11:55:00.533Z,32.44
2019-06-27T11:55:59.231Z,32.38
2019-06-27T11:56:57.763Z,32.26
2019-06-27T11:57:56.766Z,32.37
2019-06-27T11:58:54.921Z,32.45
2019-06-27T11:59:53.627Z,32.29
2019-06-27T12:00:52.235Z,32.26
2019-06-27T12:01:50.802Z,32.29
2019-06-27T12:02:49.537Z,32.28
2019-06-27T12:03:49.616Z,32.28
2019-06-27T12:04:46.589Z,32.3
2019-06-27T12:05:45.138Z,32.29
2019-06-27T12:06:43.712Z,32.23
2019-06-27T12:07:42.261Z,32.23
2019-06-27T12:08:40.823Z,32.21
2019-06-27T12:09:39.463Z,32.21
2019-06-27T12:10:38.013Z,32.29
2019-06-27T12:11:36.549Z,32.37
2019-06-27T12:12:35.288Z,32.3
2019-06-27T12:13:33.835Z,32.38
2019-06-27T12:14:32.480Z,32.33
2019-06-27T12:15:31.144Z,32.3
2019-06-27T12:16:29.700Z,32.25
2019-06-27T12:17:28.296Z,32.32
2019-06-27T12:18:26.862Z,32.28
2019-06-27T12:19:25.445Z,32.25
2019-06-27T12:20:23.963Z,32.18
2019-06-27T12:21:22.496Z,32.23
2019-06-27T12:22:21.047Z,32.1
2019-06-27T12:23:19.592Z,32.21
2019-06-27T12:24:18.202Z,32.25
2019-06-27T12:25:16.776Z,32.32
2019-06-27T12:26:15.556Z,32.25
2019-06-27T12:27:14.078Z,32.29
2019-06-27T12:28:13.327Z,32.26
2019-06-27T12:29:11.896Z,32.18
2019-06-27T12:30:11.184Z,32.21
2019-06-27T12:31:19.694Z,32.19
2019-06-27T12:32:07.722Z,32.22
2019-06-27T12:33:06.275Z,32.21
2019-06-27T12:34:07.680Z,32.21
2019-06-27T12:35:03.444Z,32.29
2019-06-27T12:36:02.515Z,32.3
2019-06-27T12:37:01.438Z,32.35
2019-06-27T12:38:00.004Z,32.38
2019-06-27T12:38:58.509Z,32.26
2019-06-27T12:39:57.211Z,32.32
2019-06-27T12:40:55.760Z,32.3
2019-06-27T12:41:54.311Z,32.3
2019-06-27T12:42:53.703Z,32.33
2019-06-27T12:43:51.674Z,32.28
2019-06-27T12:44:50.297Z,32.21
2019-06-27T12:45:49.699Z,32.22
2019-06-27T12:46:47.506Z,32.21
2019-06-27T12:47:46.032Z,32.15
2019-06-27T12:48:44.746Z,32.23
2019-06-27T12:50:52.719Z,32.28
2019-06-27T12:51:51.289Z,32.22
2019-06-27T12:52:49.989Z,32.22
2019-06-27T12:53:48.470Z,32.29
2019-06-27T12:54:47.199Z,32.21
2019-06-27T12:55:46.595Z,32.26
2019-06-27T12:56:44.269Z,32.19
2019-06-27T12:57:42.846Z,32.26
2019-06-27T12:58:42.118Z,32.23
2019-06-27T12:59:40.044Z,32.22
2019-06-27T13:00:38.538Z,32.3
2019-06-27T13:01:37.164Z,32.23
2019-06-27T13:02:35.787Z,32.3
2019-06-27T13:03:35.112Z,32.32
2019-06-27T13:04:32.961Z,32.35
2019-06-27T13:05:33.091Z,32.3
2019-06-27T13:06:31.089Z,32.35
2019-06-27T13:07:32.901Z,32.37
2019-06-27T13:08:28.313Z,32.28
2019-06-27T13:09:27.149Z,32.28
2019-06-27T13:10:25.682Z,32.23
2019-06-27T13:11:24.425Z,32.21
2019-06-27T13:12:22.958Z,32.25
2019-06-27T13:13:21.508Z,32.28